Time;durP1;ratioP1;P1;durP2;ratioP2;P2;SDS_P1;SDS_P2;PMS_P1;PMS_P2;Temp;Humidity;BMP_temperature;BMP_pressure;BME280_temperature;BME280_humidity;BME280_pressure;Samples;Min_cycle;Max_cycle;Signal;HPM_P1;HPM_P2
2021/04/19 00:00:00;;;;;;;30.10;14.63;;;5.20;99.90;;;;;;4445373;28;657548;-73
2021/04/19 00:02:47;;;;;;;31.33;14.73;;;5.20;99.90;;;;;;4420739;28;657445;-73
2021/04/19 00:05:34;;;;;;;32.97;14.97;;;5.30;99.90;;;;;;4447468;28;657843;-73
2021/04/19 00:08:21;;;;;;;34.60;13.97;;;5.30;99.90;;;;;;4449744;28;657287;-73
2021/04/19 00:11:08;;;;;;;26.80;14.07;;;5.40;99.90;;;;;;4423687;28;657497;-73
2021/04/19 00:13:55;;;;;;;28.20;14.13;;;5.50;99.90;;;;;;4443364;28;658559;-73
2021/04/19 00:16:43;;;;;;;28.63;14.20;;;5.50;99.90;;;;;;4426943;28;658393;-73
2021/04/19 00:19:30;;;;;;;31.60;14.98;;;5.50;99.90;;;;;;4446367;28;657922;-73
2021/04/19 00:22:17;;;;;;;28.08;14.32;;;5.50;99.90;;;;;;4426347;28;657927;-73
2021/04/19 00:25:05;;;;;;;28.80;13.57;;;5.50;99.90;;;;;;4443408;28;657294;-73
2021/04/19 00:27:52;;;;;;;28.83;13.07;;;5.50;99.90;;;;;;4427555;28;657424;-73
2021/04/19 00:30:39;;;;;;;29.37;12.63;;;5.50;99.90;;;;;;4453932;28;657174;-73
2021/04/19 00:33:27;;;;;;;22.00;11.83;;;5.40;99.90;;;;;;4445105;28;657352;-73
2021/04/19 00:36:14;;;;;;;26.93;13.10;;;5.40;99.90;;;;;;4430234;28;658651;-73
2021/04/19 00:39:01;;;;;;;28.50;13.93;;;5.40;99.90;;;;;;4452192;28;657423;-73
2021/04/19 00:41:48;;;;;;;23.47;11.93;;;5.30;99.90;;;;;;4430156;28;657723;-73
2021/04/19 00:44:35;;;;;;;23.37;12.33;;;5.30;99.90;;;;;;4443849;28;657683;-73
2021/04/19 00:47:22;;;;;;;27.37;11.83;;;5.20;99.90;;;;;;4430353;28;657741;-73
2021/04/19 00:50:12;;;;;;;29.00;12.80;;;5.20;99.90;;;;;;4448520;28;657566;-73
2021/04/19 00:52:59;;;;;;;26.57;13.07;;;5.20;99.90;;;;;;4429759;28;658078;-73
2021/04/19 00:55:46;;;;;;;25.80;12.97;;;5.10;99.90;;;;;;4453066;28;657567;-73
2021/04/19 00:58:34;;;;;;;23.13;12.43;;;5.00;99.90;;;;;;4421087;28;657655;-73
2021/04/19 01:01:21;;;;;;;30.90;13.10;;;5.00;99.90;;;;;;4452799;28;657569;-73
2021/04/19 01:04:08;;;;;;;30.03;14.13;;;5.00;99.90;;;;;;4429209;28;657852;-73
2021/04/19 01:06:56;;;;;;;32.33;15.30;;;4.90;99.90;;;;;;4451685;28;658054;-73
2021/04/19 01:09:43;;;;;;;30.40;14.70;;;4.90;99.90;;;;;;4428004;28;657567;-73
2021/04/19 01:12:30;;;;;;;27.37;13.97;;;4.80;99.90;;;;;;4445643;28;658152;-73
2021/04/19 01:15:18;;;;;;;25.67;13.10;;;4.80;99.90;;;;;;4437743;28;657196;-73
2021/04/19 01:18:05;;;;;;;24.73;12.90;;;4.80;99.90;;;;;;4449321;28;658187;-73
2021/04/19 01:20:53;;;;;;;28.20;13.17;;;4.80;99.90;;;;;;4429535;28;657888;-73
2021/04/19 01:23:40;;;;;;;25.20;12.37;;;4.70;99.90;;;;;;4451310;28;657544;-73
2021/04/19 01:26:27;;;;;;;25.80;12.80;;;4.70;99.90;;;;;;4429504;28;657944;-73
2021/04/19 01:29:14;;;;;;;27.00;13.57;;;4.70;99.90;;;;;;4452008;28;657188;-73
2021/04/19 01:32:01;;;;;;;22.97;11.90;;;4.70;99.90;;;;;;4451196;28;657151;-73
2021/04/19 01:34:48;;;;;;;27.00;12.60;;;4.70;99.90;;;;;;4429180;28;657655;-73
2021/04/19 01:37:37;;;;;;;26.13;12.83;;;4.70;99.90;;;;;;4448226;28;658436;-73
2021/04/19 01:40:24;;;;;;;30.63;14.13;;;4.70;99.90;;;;;;4428248;28;658709;-73
2021/04/19 01:43:11;;;;;;;31.50;13.53;;;4.70;99.90;;;;;;4445789;28;658484;-73
2021/04/19 01:45:58;;;;;;;27.57;13.83;;;4.70;99.90;;;;;;4428681;28;658494;-73
2021/04/19 01:48:45;;;;;;;34.77;15.40;;;4.70;99.90;;;;;;4448214;28;658029;-73
2021/04/19 01:51:32;;;;;;;29.40;14.93;;;4.70;99.90;;;;;;4452298;28;657688;-74
2021/04/19 01:54:19;;;;;;;33.73;15.93;;;4.70;99.90;;;;;;4428631;28;657922;-73
2021/04/19 01:57:07;;;;;;;31.13;14.77;;;4.60;99.90;;;;;;4452794;28;657719;-74
2021/04/19 01:59:54;;;;;;;28.10;14.43;;;4.60;99.90;;;;;;4424114;28;657777;-74
2021/04/19 02:02:49;;;;;;;30.07;14.80;;;4.60;99.90;;;;;;4447327;28;658429;-73
2021/04/19 02:05:41;;;;;;;31.40;15.23;;;4.50;99.90;;;;;;4424125;28;657603;-73
2021/04/19 02:08:32;;;;;;;29.90;15.03;;;4.40;99.90;;;;;;4424250;28;657372;-73
2021/04/19 02:11:28;;;;;;;27.97;14.70;;;4.40;99.90;;;;;;4428420;28;658387;-73
2021/04/19 02:14:23;;;;;;;27.80;14.50;;;4.40;99.90;;;;;;4418593;28;658189;-73
2021/04/19 02:17:20;;;;;;;33.63;15.47;;;4.40;99.90;;;;;;4429428;28;657962;-73
2021/04/19 02:20:12;;;;;;;32.85;14.75;;;4.50;99.90;;;;;;4420273;28;657523;-73
2021/04/19 02:23:00;;;;;;;28.77;14.20;;;4.50;99.90;;;;;;4423432;28;657926;-73
2021/04/19 02:25:48;;;;;;;31.42;14.55;;;4.60;99.90;;;;;;4422281;28;657417;-73
2021/04/19 02:28:38;;;;;;;30.27;14.53;;;4.60;99.90;;;;;;4442561;28;658509;-73
2021/04/19 02:31:24;;;;;;;33.30;14.77;;;4.60;99.90;;;;;;4422637;28;658280;-73
2021/04/19 02:34:15;;;;;;;37.70;15.87;;;4.70;99.90;;;;;;4450150;28;657933;-73
2021/04/19 02:37:03;;;;;;;32.53;15.15;;;4.70;99.90;;;;;;4416323;28;657789;-73
2021/04/19 02:39:50;;;;;;;30.13;14.33;;;4.70;99.90;;;;;;4439753;28;658526;-73
2021/04/19 02:42:39;;;;;;;26.20;13.80;;;4.70;99.90;;;;;;4442046;28;658075;-73
2021/04/19 02:45:27;;;;;;;34.27;14.77;;;4.70;99.90;;;;;;4442551;28;657224;-73
2021/04/19 02:48:14;;;;;;;29.20;14.73;;;4.80;99.90;;;;;;4427296;28;658042;-73
2021/04/19 02:51:01;;;;;;;28.07;14.63;;;4.80;99.90;;;;;;4446872;28;657698;-73
2021/04/19 02:53:48;;;;;;;27.53;14.07;;;4.80;99.90;;;;;;4427043;28;657637;-73
2021/04/19 02:56:35;;;;;;;30.33;14.57;;;4.90;99.90;;;;;;4449148;28;657991;-73
2021/04/19 02:59:24;;;;;;;28.33;14.27;;;4.90;99.90;;;;;;4427205;28;657704;-73
2021/04/19 03:02:12;;;;;;;34.27;15.93;;;5.00;99.90;;;;;;4445394;28;657309;-73
2021/04/19 03:04:59;;;;;;;33.13;15.47;;;5.00;99.90;;;;;;4423188;28;658523;-73
2021/04/19 03:07:50;;;;;;;33.57;15.33;;;5.10;99.90;;;;;;4449815;28;657290;-73
2021/04/19 03:10:38;;;;;;;35.60;17.07;;;5.20;99.90;;;;;;4437925;28;657864;-73
2021/04/19 03:13:26;;;;;;;32.10;16.77;;;5.20;99.90;;;;;;4449739;28;658456;-73
2021/04/19 03:16:13;;;;;;;38.07;17.63;;;5.30;99.90;;;;;;4427744;28;658630;-73
2021/04/19 03:19:01;;;;;;;38.53;17.87;;;5.30;99.90;;;;;;4440139;28;658237;-73
2021/04/19 03:21:49;;;;;;;38.20;17.27;;;5.30;99.90;;;;;;4420718;28;657685;-73
2021/04/19 03:24:36;;;;;;;35.93;16.73;;;5.40;99.90;;;;;;4450393;28;657423;-73
2021/04/19 03:27:23;;;;;;;40.77;17.57;;;5.40;99.90;;;;;;4427559;28;657375;-73
2021/04/19 03:30:11;;;;;;;40.83;17.37;;;5.40;99.90;;;;;;4443593;28;658379;-73
2021/04/19 03:32:58;;;;;;;37.33;17.47;;;5.40;99.90;;;;;;4428162;28;657946;-73
2021/04/19 03:35:46;;;;;;;35.07;17.53;;;5.50;99.90;;;;;;4444498;28;657825;-73
2021/04/19 03:38:33;;;;;;;35.80;17.50;;;5.50;99.90;;;;;;4424001;28;658562;-73
2021/04/19 03:41:20;;;;;;;41.03;18.03;;;5.50;99.90;;;;;;4450213;28;658131;-73
2021/04/19 03:44:08;;;;;;;47.47;18.13;;;5.50;99.90;;;;;;4419863;28;657569;-73
2021/04/19 03:46:56;;;;;;;36.33;16.50;;;5.60;99.90;;;;;;4441757;28;658603;-73
2021/04/19 03:49:44;;;;;;;33.33;16.50;;;5.60;99.90;;;;;;4422959;28;657932;-73
2021/04/19 03:52:34;;;;;;;36.23;16.73;;;5.60;99.90;;;;;;4440966;28;657804;-73
2021/04/19 03:55:21;;;;;;;38.37;16.60;;;5.70;99.90;;;;;;4413545;28;657528;-73
2021/04/19 03:58:08;;;;;;;33.40;16.03;;;5.70;99.90;;;;;;4416797;28;657613;-73
2021/04/19 04:00:56;;;;;;;33.93;15.63;;;5.70;99.90;;;;;;4438295;28;657540;-73
2021/04/19 04:03:43;;;;;;;32.33;16.03;;;5.70;99.90;;;;;;4421413;28;658210;-73
2021/04/19 04:06:30;;;;;;;35.97;15.53;;;5.70;99.90;;;;;;4445887;28;657749;-73
2021/04/19 04:09:18;;;;;;;36.23;16.40;;;5.70;99.90;;;;;;4421487;28;657728;-73
2021/04/19 04:12:07;;;;;;;37.60;16.13;;;5.70;99.90;;;;;;4448876;28;658162;-73
2021/04/19 04:14:54;;;;;;;33.17;16.50;;;5.70;99.90;;;;;;4426529;28;658313;-73
2021/04/19 04:17:41;;;;;;;31.77;14.90;;;5.80;99.90;;;;;;4446329;28;657503;-73
2021/04/19 04:20:28;;;;;;;35.30;15.53;;;5.80;99.90;;;;;;4418397;28;657443;-73
2021/04/19 04:23:15;;;;;;;35.93;16.60;;;5.90;99.90;;;;;;4437898;28;658001;-73
2021/04/19 04:26:04;;;;;;;38.93;17.17;;;5.90;99.90;;;;;;4419862;28;657509;-73
2021/04/19 04:28:51;;;;;;;38.17;17.73;;;5.90;99.90;;;;;;4446029;28;657936;-72
2021/04/19 04:31:38;;;;;;;34.77;17.43;;;5.90;99.90;;;;;;4420522;28;657718;-72
2021/04/19 04:34:25;;;;;;;33.83;17.47;;;6.00;99.90;;;;;;4445414;28;658178;-72
2021/04/19 04:37:12;;;;;;;38.60;18.10;;;6.00;99.90;;;;;;4441189;28;658157;-73
2021/04/19 04:39:59;;;;;;;37.83;18.25;;;6.00;99.90;;;;;;4442836;28;657703;-72
2021/04/19 04:42:47;;;;;;;38.90;18.90;;;6.10;99.90;;;;;;4449243;28;657239;-72
2021/04/19 04:45:34;;;;;;;37.87;19.23;;;6.10;99.90;;;;;;4420420;28;658676;-72
2021/04/19 04:48:24;;;;;;;40.73;19.47;;;6.20;99.90;;;;;;4449310;28;656755;-72
2021/04/19 04:51:13;;;;;;;40.40;19.87;;;6.20;99.90;;;;;;4416252;28;657725;-72
2021/04/19 04:54:02;;;;;;;38.27;20.33;;;6.20;99.90;;;;;;4421775;28;658030;-72
2021/04/19 04:56:50;;;;;;;43.00;20.87;;;6.20;99.90;;;;;;4427003;28;657608;-72
2021/04/19 04:59:38;;;;;;;42.27;20.17;;;6.20;99.90;;;;;;4425952;28;657562;-72
2021/04/19 05:02:25;;;;;;;40.57;20.27;;;6.30;99.90;;;;;;4445230;28;657701;-72
2021/04/19 05:05:14;;;;;;;43.47;21.40;;;6.20;99.90;;;;;;4425587;28;657960;-73
2021/04/19 05:08:01;;;;;;;44.77;21.03;;;6.30;99.90;;;;;;4443857;28;657387;-72
2021/04/19 05:10:48;;;;;;;40.03;20.57;;;6.40;99.90;;;;;;4422819;28;657529;-72
2021/04/19 05:13:35;;;;;;;41.10;20.77;;;6.40;99.90;;;;;;4450090;28;658535;-71
2021/04/19 05:16:27;;;;;;;42.43;20.67;;;6.40;99.90;;;;;;4448181;28;658023;-73
2021/04/19 05:19:14;;;;;;;47.43;20.83;;;6.50;99.90;;;;;;4430514;28;658029;-71
2021/04/19 05:22:01;;;;;;;44.37;20.63;;;6.50;99.90;;;;;;4448758;28;657652;-73
2021/04/19 05:24:49;;;;;;;41.93;20.03;;;6.50;99.90;;;;;;4429073;28;657577;-72
2021/04/19 05:27:36;;;;;;;47.90;21.30;;;6.60;99.90;;;;;;4446386;28;657694;-71
2021/04/19 05:30:24;;;;;;;45.37;21.73;;;6.60;99.90;;;;;;4429235;28;657693;-72
2021/04/19 05:33:12;;;;;;;43.90;20.90;;;6.70;99.90;;;;;;4446092;28;657193;-72
2021/04/19 05:35:59;;;;;;;37.40;19.60;;;6.70;99.90;;;;;;4429026;28;658746;-72
2021/04/19 05:38:46;;;;;;;41.23;19.30;;;6.70;99.90;;;;;;4443455;28;658038;-72
2021/04/19 05:41:33;;;;;;;43.33;20.60;;;6.80;99.90;;;;;;4429226;28;658126;-73
2021/04/19 05:44:20;;;;;;;46.20;21.43;;;6.80;99.90;;;;;;4451880;28;658104;-71
2021/04/19 05:47:07;;;;;;;45.77;21.13;;;6.90;99.90;;;;;;4431358;28;657482;-72
2021/04/19 05:49:56;;;;;;;44.33;20.83;;;6.90;99.90;;;;;;4445279;28;658237;-72
2021/04/19 05:52:44;;;;;;;45.97;21.83;;;7.00;99.90;;;;;;4429161;28;657380;-72
2021/04/19 05:55:32;;;;;;;47.10;23.07;;;7.00;99.90;;;;;;4444902;28;657355;-72
2021/04/19 05:58:21;;;;;;;48.03;21.73;;;7.00;99.90;;;;;;4424237;28;658341;-70
2021/04/19 06:01:09;;;;;;;47.67;21.47;;;7.10;99.90;;;;;;4421134;28;658051;-72
2021/04/19 06:03:57;;;;;;;46.83;22.10;;;7.10;99.90;;;;;;4451699;28;657639;-72
2021/04/19 06:06:47;;;;;;;77.03;32.67;;;7.20;99.90;;;;;;4410596;28;658707;-71
2021/04/19 06:09:37;;;;;;;82.90;34.70;;;7.10;99.90;;;;;;4422196;28;658423;-71
2021/04/19 06:12:27;;;;;;;105.53;41.33;;;7.20;99.90;;;;;;4420017;28;658251;-70
2021/04/19 06:15:14;;;;;;;53.77;24.47;;;7.20;99.90;;;;;;4423643;28;659288;-70
2021/04/19 06:18:01;;;;;;;43.97;21.35;;;7.20;99.90;;;;;;4451580;28;657655;-70
2021/04/19 06:20:50;;;;;;;46.50;20.97;;;7.20;99.90;;;;;;4426939;28;657877;-69
2021/04/19 06:23:40;;;;;;;48.67;22.47;;;7.20;99.90;;;;;;4421960;28;658306;-70
2021/04/19 06:26:27;;;;;;;50.20;22.60;;;7.20;99.90;;;;;;4447883;28;657565;-69
2021/04/19 06:29:16;;;;;;;50.90;22.37;;;7.30;99.90;;;;;;4425850;28;658616;-70
2021/04/19 06:32:03;;;;;;;51.97;22.50;;;7.30;99.90;;;;;;4425034;28;657402;-70
2021/04/19 06:34:51;;;;;;;50.60;23.87;;;7.30;99.90;;;;;;4440794;28;658353;-69
2021/04/19 06:37:38;;;;;;;55.83;24.20;;;7.30;99.90;;;;;;4422772;28;657958;-69
2021/04/19 06:40:26;;;;;;;59.53;26.07;;;7.40;99.90;;;;;;4444480;28;657631;-70
2021/04/19 06:43:13;;;;;;;58.40;26.27;;;7.30;99.90;;;;;;4429615;28;658061;-70
2021/04/19 06:46:00;;;;;;;56.97;27.42;;;7.30;99.90;;;;;;4448269;28;658395;-69
2021/04/19 06:48:48;;;;;;;56.87;26.53;;;7.20;99.90;;;;;;4428985;28;658061;-70
2021/04/19 06:51:35;;;;;;;57.65;26.83;;;7.10;99.90;;;;;;4441879;28;657736;-70
2021/04/19 06:54:22;;;;;;;58.27;24.63;;;7.10;99.90;;;;;;4427442;28;657550;-70
2021/04/19 06:57:10;;;;;;;53.40;24.37;;;7.10;99.90;;;;;;4438049;28;658431;-70
2021/04/19 06:59:58;;;;;;;48.50;22.40;;;7.10;99.90;;;;;;4418355;28;657497;-70
2021/04/19 07:02:48;;;;;;;49.20;22.67;;;7.10;99.90;;;;;;4441523;28;657942;-69
2021/04/19 07:05:36;;;;;;;76.40;36.53;;;7.20;99.90;;;;;;4423495;28;658348;-69
2021/04/19 07:08:25;;;;;;;112.37;47.80;;;7.20;99.90;;;;;;4425411;28;657610;-70
2021/04/19 07:11:12;;;;;;;176.37;50.10;;;7.30;99.90;;;;;;4428390;28;660011;-70
2021/04/19 07:14:01;;;;;;;53.60;24.83;;;7.40;99.90;;;;;;4438535;28;659742;-69
2021/04/19 07:16:48;;;;;;;49.27;21.63;;;7.50;99.90;;;;;;4423070;28;657944;-70
2021/04/19 07:19:35;;;;;;;46.33;20.63;;;7.50;99.90;;;;;;4446640;28;657583;-69
2021/04/19 07:22:22;;;;;;;39.17;18.93;;;7.60;99.90;;;;;;4427754;28;657659;-69
2021/04/19 07:25:10;;;;;;;34.80;17.50;;;7.70;99.90;;;;;;4443264;28;657953;-70
2021/04/19 07:27:58;;;;;;;40.10;18.67;;;7.80;99.90;;;;;;4428596;28;657976;-70
2021/04/19 07:30:46;;;;;;;43.83;19.13;;;8.00;99.90;;;;;;4447823;28;658504;-70
2021/04/19 07:33:34;;;;;;;40.93;19.30;;;8.10;99.90;;;;;;4429016;28;657767;-70
2021/04/19 07:36:26;;;;;;;63.40;30.03;;;8.40;99.90;;;;;;4447817;28;657523;-70
2021/04/19 07:39:15;;;;;;;43.23;21.03;;;8.60;99.90;;;;;;4387745;28;657826;-69
2021/04/19 07:42:04;;;;;;;69.43;35.58;;;8.70;99.90;;;;;;4426799;28;657419;-70
2021/04/19 07:44:51;;;;;;;56.57;27.10;;;8.80;99.90;;;;;;4447831;28;658127;-70
2021/04/19 07:47:41;;;;;;;48.97;22.20;;;8.90;99.90;;;;;;4422192;28;658130;-70
2021/04/19 07:50:28;;;;;;;43.97;22.17;;;8.80;99.90;;;;;;4428548;28;658249;-70
2021/04/19 07:53:15;;;;;;;49.27;22.00;;;8.80;99.90;;;;;;4444606;28;658583;-70
2021/04/19 07:56:03;;;;;;;46.23;21.13;;;8.80;99.90;;;;;;4431364;28;657591;-70
2021/04/19 07:58:50;;;;;;;37.67;19.63;;;8.80;99.90;;;;;;4447252;28;658943;-70
2021/04/19 08:01:48;;;;;;;38.50;18.73;;;8.80;99.90;;;;;;4442617;28;658035;-69
2021/04/19 08:04:45;;;;;;;41.10;21.00;;;8.80;99.90;;;;;;4396272;28;657677;-70
2021/04/19 08:07:33;;;;;;;40.83;19.73;;;8.80;99.90;;;;;;4410197;28;657550;-70
2021/04/19 08:10:33;;;;;;;41.70;20.83;;;8.90;99.90;;;;;;4446556;28;658423;-70
2021/04/19 08:17:09;;;;;;;44.90;21.40;;;8.80;99.90;;;;;;4400017;28;658616;-70
2021/04/19 08:19:57;;;;;;;47.47;22.73;;;8.80;99.90;;;;;;4405119;28;657525;-70
2021/04/19 08:22:44;;;;;;;51.77;25.00;;;8.80;99.90;;;;;;4414579;28;658956;-69
2021/04/19 08:25:39;;;;;;;61.37;25.47;;;8.80;99.90;;;;;;4430999;28;658090;-70
2021/04/19 08:28:27;;;;;;;58.07;25.83;;;8.80;99.90;;;;;;4407195;28;658048;-69
2021/04/19 08:31:15;;;;;;;68.93;28.93;;;8.80;99.90;;;;;;4410931;28;658203;-69
2021/04/19 08:34:02;;;;;;;63.60;28.70;;;8.70;99.90;;;;;;4420127;28;657755;-70
2021/04/19 08:36:52;;;;;;;62.10;28.73;;;8.50;99.90;;;;;;4432780;28;658190;-70
2021/04/19 08:39:57;;;;;;;60.30;27.65;;;8.60;99.90;;;;;;4426108;28;659552;-70
2021/04/19 08:42:44;;;;;;;59.10;28.50;;;8.70;99.90;;;;;;4405034;28;657606;-70
2021/04/19 08:45:31;;;;;;;59.47;28.97;;;8.70;99.90;;;;;;4445752;28;658002;-71
2021/04/19 08:48:19;;;;;;;58.93;27.20;;;8.60;99.90;;;;;;4427645;28;657985;-70
2021/04/19 08:51:07;;;;;;;60.53;27.83;;;8.60;99.90;;;;;;4449329;28;658235;-70
2021/04/19 08:53:55;;;;;;;65.40;29.63;;;8.60;99.90;;;;;;4429737;28;658445;-70
2021/04/19 08:56:43;;;;;;;60.17;28.07;;;8.60;99.90;;;;;;4431351;28;657624;-70
2021/04/19 08:59:30;;;;;;;59.67;28.03;;;8.60;99.90;;;;;;4453398;28;658398;-70
2021/04/19 09:02:18;;;;;;;61.70;29.00;;;8.60;99.90;;;;;;4432433;28;657715;-70
2021/04/19 09:05:08;;;;;;;65.47;29.90;;;8.40;99.90;;;;;;4450145;28;657792;-70
2021/04/19 09:08:03;;;;;;;60.33;28.30;;;8.40;99.90;;;;;;4427104;28;658175;-70
2021/04/19 09:10:53;;;;;;;64.63;29.43;;;8.30;99.90;;;;;;4413767;28;657697;-71
2021/04/19 09:13:42;;;;;;;66.10;29.00;;;8.20;99.90;;;;;;4431627;28;657675;-70
2021/04/19 09:16:34;;;;;;;60.60;28.93;;;8.10;99.90;;;;;;4415902;28;658318;-70
2021/04/19 09:19:21;;;;;;;62.37;28.53;;;8.00;99.90;;;;;;4411778;28;657955;-70
2021/04/19 09:22:16;;;;;;;61.60;28.40;;;8.00;99.90;;;;;;4414079;28;657226;-70
2021/04/19 09:25:06;;;;;;;69.07;30.03;;;8.00;99.90;;;;;;4415014;28;657640;-70
2021/04/19 09:27:56;;;;;;;67.23;30.87;;;7.90;99.90;;;;;;4431512;28;657905;-70
2021/04/19 09:30:46;;;;;;;63.90;29.57;;;7.90;99.90;;;;;;4429324;28;657739;-70
2021/04/19 09:33:33;;;;;;;73.13;32.27;;;7.90;99.90;;;;;;4430292;28;657534;-70
2021/04/19 09:36:51;;;;;;;68.57;30.60;;;7.90;99.90;;;;;;4452261;28;658542;-70
2021/04/19 09:39:45;;;;;;;67.77;30.53;;;7.90;99.90;;;;;;4407674;28;657791;-70
2021/04/19 09:43:05;;;;;;;66.90;30.60;;;7.90;99.90;;;;;;4412451;28;657895;-70
2021/04/19 09:45:54;;;;;;;71.83;30.73;;;7.90;99.90;;;;;;4390565;28;657738;-70
2021/04/19 09:48:43;;;;;;;68.70;32.37;;;7.90;99.90;;;;;;4430840;28;658356;-70
2021/04/19 09:51:33;;;;;;;84.20;35.13;;;7.90;99.90;;;;;;4407661;28;658289;-70
2021/04/19 09:54:22;;;;;;;79.47;34.60;;;7.80;99.90;;;;;;4408000;28;658192;-70
2021/04/19 09:57:10;;;;;;;85.97;35.63;;;7.90;99.90;;;;;;4407977;28;658178;-70
2021/04/19 10:00:01;;;;;;;80.33;36.27;;;7.90;99.90;;;;;;4412288;28;657421;-70
2021/04/19 10:02:49;;;;;;;88.43;36.50;;;7.90;99.90;;;;;;4421975;28;657808;-70
2021/04/19 10:05:36;;;;;;;79.73;36.37;;;7.90;99.90;;;;;;4447429;28;657594;-70
2021/04/19 10:08:24;;;;;;;85.27;36.87;;;8.00;99.90;;;;;;4429218;28;657608;-70
2021/04/19 10:11:12;;;;;;;89.93;36.97;;;8.00;99.90;;;;;;4440479;28;657531;-70
2021/04/19 10:14:06;;;;;;;87.03;36.53;;;8.10;99.90;;;;;;4407630;28;658244;-70
2021/04/19 10:16:54;;;;;;;87.27;36.40;;;8.10;99.90;;;;;;4389236;28;658074;-70
2021/04/19 10:19:42;;;;;;;89.70;36.87;;;8.20;99.90;;;;;;4436562;28;657442;-71
2021/04/19 10:22:29;;;;;;;88.90;36.73;;;8.30;99.90;;;;;;4430856;28;657876;-69
2021/04/19 10:25:17;;;;;;;82.90;36.03;;;8.30;99.90;;;;;;4453174;28;657516;-70
2021/04/19 10:28:05;;;;;;;85.83;35.67;;;8.30;99.90;;;;;;4427020;28;658842;-71
2021/04/19 10:30:52;;;;;;;76.30;33.50;;;8.30;99.90;;;;;;4449353;28;658378;-70
2021/04/19 10:33:41;;;;;;;77.63;35.60;;;8.30;99.90;;;;;;4453564;28;659252;-70
2021/04/19 10:36:29;;;;;;;79.73;34.73;;;8.30;99.90;;;;;;4430269;28;657692;-70
2021/04/19 10:39:17;;;;;;;78.03;34.77;;;8.40;99.90;;;;;;4429959;28;657330;-70
2021/04/19 10:42:06;;;;;;;83.90;35.23;;;8.50;99.90;;;;;;4411908;28;658472;-70
2021/04/19 10:44:54;;;;;;;82.10;32.73;;;8.50;99.90;;;;;;4411938;28;658258;-70
2021/04/19 10:47:42;;;;;;;78.50;33.07;;;8.60;99.90;;;;;;4430777;28;657398;-71
2021/04/19 10:50:32;;;;;;;81.30;35.33;;;8.80;99.90;;;;;;4411935;28;657679;-70
2021/04/19 10:53:34;;;;;;;81.63;34.13;;;8.90;99.90;;;;;;4407418;28;658409;-71
2021/04/19 10:56:22;;;;;;;73.07;34.23;;;9.00;99.90;;;;;;4416445;28;658422;-70
2021/04/19 10:59:10;;;;;;;80.63;34.50;;;9.20;99.90;;;;;;4430107;28;658374;-70
2021/04/19 11:02:02;;;;;;;75.50;34.13;;;9.40;99.90;;;;;;4437499;28;657368;-70
2021/04/19 11:04:49;;;;;;;78.00;34.90;;;9.70;99.90;;;;;;4430286;28;657809;-70
2021/04/19 11:07:42;;;;;;;77.20;34.50;;;10.00;99.90;;;;;;4452329;28;657724;-70
2021/04/19 11:10:30;;;;;;;74.63;33.60;;;10.60;99.90;;;;;;4383309;28;659562;-69
2021/04/19 11:13:17;;;;;;;72.70;32.40;;;10.90;99.90;;;;;;4427792;28;658645;-70
2021/04/19 11:16:06;;;;;;;69.22;31.63;;;11.30;99.90;;;;;;4451734;28;659712;-70
2021/04/19 11:18:53;;;;;;;65.63;31.08;;;11.40;99.90;;;;;;4424117;28;658562;-70
2021/04/19 11:21:41;;;;;;;71.00;31.60;;;11.50;99.90;;;;;;4451563;28;659378;-71
2021/04/19 11:24:38;;;;;;;69.23;30.90;;;11.90;99.90;;;;;;4429306;28;658938;-70
2021/04/19 11:27:26;;;;;;;57.67;27.90;;;12.50;99.90;;;;;;4425437;28;658922;-70
2021/04/19 11:30:27;;;;;;;60.30;27.87;;;12.90;99.90;;;;;;4427265;28;658874;-70
2021/04/19 11:33:15;;;;;;;58.10;28.93;;;12.90;99.90;;;;;;4428761;28;658790;-70
2021/04/19 11:36:04;;;;;;;56.33;28.13;;;13.40;99.90;;;;;;4440833;28;659013;-70
2021/04/19 11:38:51;;;;;;;51.90;26.87;;;13.60;99.90;;;;;;4446972;28;658956;-71
2021/04/19 11:41:39;;;;;;;56.20;27.50;;;13.20;99.90;;;;;;4428140;28;658902;-70
2021/04/19 11:44:49;;;;;;;57.07;27.67;;;12.90;99.90;;;;;;4446186;28;658412;-71
2021/04/19 11:47:36;;;;;;;59.10;28.80;;;12.60;99.90;;;;;;4423606;28;659010;-70
2021/04/19 11:50:25;;;;;;;54.00;27.73;;;12.00;99.90;;;;;;4420994;28;659049;-70
2021/04/19 11:53:24;;;;;;;54.63;27.50;;;11.60;99.90;;;;;;4426673;28;658918;-69
2021/04/19 11:56:11;;;;;;;55.75;27.67;;;11.40;99.90;;;;;;4420198;28;658813;-71
2021/04/19 11:59:00;;;;;;;54.17;26.27;;;11.30;99.90;;;;;;4425659;28;658609;-71
2021/04/19 12:01:47;;;;;;;57.07;27.63;;;11.00;99.90;;;;;;4444762;28;658433;-70
2021/04/19 12:04:35;;;;;;;58.17;28.15;;;10.80;99.90;;;;;;4449863;28;659674;-71
2021/04/19 12:07:22;;;;;;;53.30;26.87;;;10.80;99.90;;;;;;4446014;28;658974;-71
2021/04/19 12:10:10;;;;;;;51.40;27.10;;;10.80;99.90;;;;;;4426220;28;659850;-71
2021/04/19 12:12:57;;;;;;;55.77;28.17;;;11.00;99.90;;;;;;4434704;28;658602;-70
2021/04/19 12:15:47;;;;;;;59.00;28.00;;;11.10;99.90;;;;;;4447992;28;659109;-71
2021/04/19 12:18:35;;;;;;;60.80;29.73;;;11.20;99.90;;;;;;4426384;28;659400;-71
2021/04/19 12:21:22;;;;;;;60.90;30.13;;;11.40;99.90;;;;;;4426374;28;659019;-71
2021/04/19 12:24:10;;;;;;;59.33;29.83;;;11.40;99.90;;;;;;4449467;28;659676;-71
2021/04/19 12:26:57;;;;;;;63.15;31.02;;;11.40;99.90;;;;;;4429505;28;658602;-70
2021/04/19 12:29:44;;;;;;;63.57;31.27;;;11.30;99.90;;;;;;4450120;28;658788;-71
2021/04/19 12:32:32;;;;;;;68.67;31.80;;;11.20;99.90;;;;;;4446178;28;658893;-72
2021/04/19 12:35:20;;;;;;;65.10;33.10;;;11.10;99.90;;;;;;4423016;28;659780;-71
2021/04/19 12:38:07;;;;;;;70.73;35.23;;;11.10;99.90;;;;;;4424553;28;659264;-70
2021/04/19 12:40:55;;;;;;;77.10;36.53;;;11.10;99.90;;;;;;4444058;28;660068;-73
2021/04/19 12:43:42;;;;;;;70.20;34.27;;;11.40;99.90;;;;;;4444220;28;658684;-73
2021/04/19 12:46:29;;;;;;;73.47;36.03;;;11.40;99.90;;;;;;4425955;28;659436;-72
2021/04/19 12:49:19;;;;;;;74.80;35.83;;;11.40;99.90;;;;;;4443854;28;658108;-71
2021/04/19 12:52:06;;;;;;;69.70;34.73;;;11.50;99.90;;;;;;4421627;28;658983;-72
2021/04/19 12:54:53;;;;;;;70.60;35.77;;;11.40;99.90;;;;;;4407937;28;658504;-71
2021/04/19 12:57:40;;;;;;;71.20;34.50;;;11.20;99.90;;;;;;4426613;28;658928;-72
2021/04/19 13:00:28;;;;;;;76.77;35.90;;;11.10;99.90;;;;;;4407936;28;658882;-70
2021/04/19 13:03:15;;;;;;;72.23;36.13;;;10.90;99.90;;;;;;4427419;28;659590;-71
2021/04/19 13:06:03;;;;;;;71.73;36.07;;;10.70;99.90;;;;;;4424047;28;659078;-69
2021/04/19 13:08:50;;;;;;;76.38;37.17;;;10.70;99.90;;;;;;4433504;28;659460;-71
2021/04/19 13:11:37;;;;;;;77.95;38.35;;;10.80;99.90;;;;;;4426286;28;658759;-71
2021/04/19 13:14:24;;;;;;;72.17;36.60;;;10.80;99.90;;;;;;4449780;28;659971;-71
2021/04/19 13:17:11;;;;;;;71.83;34.20;;;11.00;99.90;;;;;;4446132;28;658780;-71
2021/04/19 13:19:58;;;;;;;72.13;34.83;;;11.50;99.90;;;;;;4427308;28;658630;-70
2021/04/19 13:22:46;;;;;;;66.70;33.10;;;12.20;99.90;;;;;;4445953;28;659523;-70
2021/04/19 13:25:34;;;;;;;65.63;32.77;;;12.80;99.90;;;;;;4423436;28;658580;-72
2021/04/19 13:28:21;;;;;;;62.63;32.17;;;12.60;99.90;;;;;;4446128;28;658796;-73
2021/04/19 13:31:08;;;;;;;63.37;33.70;;;12.30;99.90;;;;;;4427066;28;658862;-72
2021/04/19 13:33:55;;;;;;;70.63;34.37;;;12.00;99.90;;;;;;4446312;28;659125;-73
2021/04/19 13:36:42;;;;;;;67.60;34.23;;;11.80;99.90;;;;;;4441884;28;659079;-71
2021/04/19 13:39:30;;;;;;;66.80;33.07;;;11.40;99.90;;;;;;4445501;28;659180;-74
2021/04/19 13:42:17;;;;;;;72.43;35.38;;;11.20;99.90;;;;;;4412211;28;658864;-70
2021/04/19 13:45:06;;;;;;;68.65;34.90;;;10.90;99.90;;;;;;4434544;28;658542;-73
2021/04/19 13:47:53;;;;;;;71.43;35.53;;;10.80;99.90;;;;;;4411498;28;658962;-73
2021/04/19 13:50:40;;;;;;;74.40;35.73;;;10.60;99.90;;;;;;4430359;28;659959;-74
2021/04/19 13:53:27;;;;;;;74.97;34.97;;;10.50;99.90;;;;;;4411536;28;658821;-72
2021/04/19 13:56:15;;;;;;;73.77;35.67;;;10.40;99.90;;;;;;4430623;28;660342;-73
2021/04/19 13:59:02;;;;;;;71.50;35.77;;;10.40;99.90;;;;;;4411250;28;659131;-71
2021/04/19 14:01:49;;;;;;;72.53;34.37;;;10.40;99.90;;;;;;4429593;28;659936;-73
2021/04/19 14:04:37;;;;;;;65.63;34.03;;;10.50;99.90;;;;;;4434095;28;658625;-74
2021/04/19 14:07:24;;;;;;;75.97;36.90;;;10.70;99.90;;;;;;4410763;28;658813;-73
2021/04/19 14:10:11;;;;;;;74.10;35.97;;;11.00;99.90;;;;;;4429944;28;658980;-73
2021/04/19 14:12:59;;;;;;;72.60;35.37;;;11.40;99.90;;;;;;4410193;28;659097;-72
2021/04/19 14:15:46;;;;;;;68.60;33.27;;;11.80;99.90;;;;;;4434096;28;659100;-72